RJA112 EGLL-OJAI
Flight info
| Callsign | RJA112 |
|---|---|
| Flight time | 4h 11m |
| Altitude | 39000 |
| Route | DET L6 DVR L9 KONAN UL607 KOK DCT SISGA DCT RITAX DCT BANUX DCT BABEG DCT KUMOM DCT LUMUS DCT GORPA DCT DEVUL DCT REMSO DCT MEDUX UM867 KOGAT DCT ERANA UL737 TSL UN130 MES UL609 RDS DCT ALKIS L609 APLON DCT PIKOG L609 KONFO/N0492F370 L609 VOLFO N134 RALNA |
| Aircraft | B789/H-SDE1E2E3FGHIJ2J3J4J5M1RWXY/LB1D1 |
Departure
| Time | 2026-04-30 15:18 |
|---|---|
| Airport | London Heathrow Airport (EGLL) |
Arrival
| Time | 2026-04-30 19:30 |
|---|---|
| Airport | Queen Alia International Airport (OJAI) |
| Time | Latitude | Longitude | Altitude | Speed | Heading |
|---|---|---|---|---|---|
| 2026-04-30 14:40 | 51.47292 | -0.46126 | 97 ft | 0 kts | 237° |
| 2026-04-30 15:03 | 51.47308 | -0.46086 | 94 ft | 2 kts | 242° |
| 2026-04-30 15:04 | 51.47319 | -0.46036 | 94 ft | 2 kts | 268° |
| 2026-04-30 15:04 | 51.47308 | -0.46000 | 95 ft | 0 kts | 322° |
| 2026-04-30 15:08 | 51.47336 | -0.46032 | 97 ft | 5 kts | 325° |
| 2026-04-30 15:08 | 51.47448 | -0.46154 | 94 ft | 7 kts | 326° |
| 2026-04-30 15:09 | 51.47511 | -0.46264 | 94 ft | 6 kts | 282° |
| 2026-04-30 15:09 | 51.47515 | -0.46382 | 94 ft | 5 kts | 271° |
| 2026-04-30 15:10 | 51.47516 | -0.46450 | 94 ft | 2 kts | 271° |
| 2026-04-30 15:11 | 51.47483 | -0.46749 | 95 ft | 7 kts | 200° |
| 2026-04-30 15:11 | 51.47354 | -0.46727 | 91 ft | 16 kts | 176° |
| 2026-04-30 15:12 | 51.47012 | -0.46682 | 92 ft | 17 kts | 145° |
| 2026-04-30 15:13 | 51.46836 | -0.46490 | 92 ft | 13 kts | 144° |
| 2026-04-30 15:14 | 51.46747 | -0.46636 | 96 ft | 12 kts | 269° |
| 2026-04-30 15:14 | 51.46748 | -0.47231 | 92 ft | 26 kts | 270° |
| 2026-04-30 15:16 | 51.46718 | -0.48198 | 96 ft | 7 kts | 212° |
| 2026-04-30 15:17 | 51.46481 | -0.48133 | 92 ft | 0 kts | 92° |
| 2026-04-30 15:18 | 51.46471 | -0.41953 | 1585 ft | 176 kts | 93° |
| 2026-04-30 15:19 | 51.45600 | -0.36066 | 3970 ft | 207 kts | 125° |
| 2026-04-30 17:39 | 40.90857 | 22.51293 | 39144 ft | 520 kts | 145° |
| 2026-04-30 17:42 | 40.62730 | 22.81161 | 39123 ft | 519 kts | 145° |
| 2026-04-30 17:43 | 40.48637 | 22.96002 | 39124 ft | 519 kts | 145° |
| 2026-04-30 17:44 | 40.33240 | 23.16311 | 39110 ft | 525 kts | 136° |
| 2026-04-30 17:47 | 40.10648 | 23.47306 | 39059 ft | 522 kts | 137° |
| 2026-04-30 17:48 | 39.93084 | 23.71185 | 39051 ft | 520 kts | 137° |
| 2026-04-30 17:50 | 39.73031 | 23.98218 | 39034 ft | 518 kts | 137° |
| 2026-04-30 17:52 | 39.58025 | 24.18289 | 39034 ft | 516 kts | 137° |
| 2026-04-30 17:54 | 39.35485 | 24.48188 | 39024 ft | 517 kts | 137° |
| 2026-04-30 17:56 | 39.15514 | 24.74826 | 39018 ft | 516 kts | 137° |
| 2026-04-30 17:58 | 39.00431 | 24.94538 | 39013 ft | 514 kts | 137° |
| 2026-04-30 18:00 | 38.80285 | 25.20527 | 39001 ft | 512 kts | 138° |
| 2026-04-30 18:01 | 38.67675 | 25.36681 | 38996 ft | 513 kts | 138° |
| 2026-04-30 18:02 | 38.52519 | 25.55984 | 38990 ft | 513 kts | 138° |
| 2026-04-30 18:04 | 38.37315 | 25.75225 | 38982 ft | 513 kts | 138° |
| 2026-04-30 18:06 | 38.16608 | 26.00093 | 38999 ft | 513 kts | 142° |
| 2026-04-30 18:08 | 37.97725 | 26.20936 | 38990 ft | 515 kts | 142° |
| 2026-04-30 18:10 | 37.76033 | 26.44673 | 38985 ft | 514 kts | 143° |
| 2026-04-30 18:11 | 37.57057 | 26.65287 | 38972 ft | 514 kts | 143° |
| 2026-04-30 18:13 | 37.43470 | 26.79973 | 38979 ft | 514 kts | 143° |
| 2026-04-30 18:14 | 37.30308 | 26.95275 | 39000 ft | 517 kts | 140° |
| 2026-04-30 18:15 | 37.14635 | 27.13950 | 38995 ft | 518 kts | 140° |
| 2026-04-30 18:16 | 37.05049 | 27.25301 | 38989 ft | 518 kts | 140° |
| 2026-04-30 18:17 | 36.99808 | 27.31491 | 38992 ft | 518 kts | 140° |
| 2026-04-30 18:18 | 36.91943 | 27.40758 | 38992 ft | 518 kts | 140° |
| 2026-04-30 18:18 | 36.86684 | 27.46939 | 38986 ft | 519 kts | 140° |
| 2026-04-30 18:19 | 36.81992 | 27.52443 | 38988 ft | 518 kts | 140° |
| 2026-04-30 18:19 | 36.76743 | 27.58589 | 38980 ft | 518 kts | 140° |
| 2026-04-30 18:20 | 36.71480 | 27.64739 | 38978 ft | 518 kts | 140° |
| 2026-04-30 18:20 | 36.66222 | 27.70871 | 38978 ft | 518 kts | 140° |
| 2026-04-30 18:21 | 36.60923 | 27.77040 | 38971 ft | 518 kts | 141° |
| 2026-04-30 18:21 | 36.55652 | 27.83164 | 38969 ft | 518 kts | 141° |
| 2026-04-30 18:22 | 36.50377 | 27.89278 | 38964 ft | 518 kts | 141° |
| 2026-04-30 18:22 | 36.42496 | 27.98394 | 38959 ft | 518 kts | 141° |
| 2026-04-30 18:23 | 36.37187 | 28.04519 | 38962 ft | 518 kts | 141° |
| 2026-04-30 18:23 | 36.32296 | 28.11110 | 38978 ft | 524 kts | 128° |
| 2026-04-30 18:24 | 36.25936 | 28.22131 | 38995 ft | 524 kts | 128° |
| 2026-04-30 18:25 | 36.21662 | 28.29451 | 38980 ft | 524 kts | 128° |
| 2026-04-30 18:25 | 36.15294 | 28.40401 | 38992 ft | 523 kts | 128° |
| 2026-04-30 18:26 | 36.08898 | 28.51345 | 38992 ft | 523 kts | 128° |
| 2026-04-30 18:27 | 36.02506 | 28.62246 | 39006 ft | 522 kts | 129° |
| 2026-04-30 18:28 | 35.96109 | 28.73126 | 39013 ft | 522 kts | 129° |
| 2026-04-30 18:28 | 35.89691 | 28.84006 | 39008 ft | 522 kts | 129° |
| 2026-04-30 18:29 | 35.81132 | 28.98463 | 39008 ft | 522 kts | 129° |
| 2026-04-30 18:30 | 35.72557 | 29.12884 | 39006 ft | 521 kts | 129° |
| 2026-04-30 18:31 | 35.66120 | 29.23672 | 39006 ft | 522 kts | 129° |
| 2026-04-30 18:32 | 35.59658 | 29.34467 | 39005 ft | 523 kts | 129° |
| 2026-04-30 18:33 | 35.53215 | 29.45198 | 39008 ft | 522 kts | 129° |
| 2026-04-30 18:33 | 35.46727 | 29.55970 | 39006 ft | 523 kts | 129° |
| 2026-04-30 18:34 | 35.40235 | 29.66717 | 39008 ft | 523 kts | 129° |
| 2026-04-30 18:35 | 35.35904 | 29.73867 | 39007 ft | 523 kts | 129° |
| 2026-04-30 18:35 | 35.31561 | 29.81022 | 39005 ft | 523 kts | 129° |
| 2026-04-30 18:36 | 35.25047 | 29.91727 | 39005 ft | 523 kts | 129° |
| 2026-04-30 18:37 | 35.18438 | 30.02344 | 39016 ft | 522 kts | 132° |
| 2026-04-30 18:37 | 35.13929 | 30.09320 | 39018 ft | 523 kts | 131° |
| 2026-04-30 18:38 | 35.09372 | 30.16251 | 39020 ft | 523 kts | 132° |
| 2026-04-30 18:38 | 35.04827 | 30.23191 | 39017 ft | 524 kts | 131° |
| 2026-04-30 18:39 | 35.00273 | 30.30123 | 39013 ft | 523 kts | 132° |
| 2026-04-30 18:39 | 34.95713 | 30.37045 | 39014 ft | 524 kts | 131° |
| 2026-04-30 18:40 | 34.91148 | 30.43969 | 39010 ft | 524 kts | 132° |
| 2026-04-30 18:40 | 34.86572 | 30.50888 | 39011 ft | 525 kts | 132° |
| 2026-04-30 18:41 | 34.81995 | 30.57802 | 39009 ft | 524 kts | 132° |
| 2026-04-30 18:41 | 34.77428 | 30.64682 | 39004 ft | 525 kts | 132° |
| 2026-04-30 18:42 | 34.72837 | 30.71589 | 39006 ft | 525 kts | 132° |
| 2026-04-30 18:42 | 34.65945 | 30.81928 | 39013 ft | 525 kts | 132° |
| 2026-04-30 18:45 | 34.41452 | 31.20617 | 39013 ft | 526 kts | 130° |
| 2026-04-30 18:46 | 34.37008 | 31.27669 | 39011 ft | 526 kts | 130° |
| 2026-04-30 18:46 | 34.32574 | 31.34699 | 39009 ft | 525 kts | 130° |
| 2026-04-30 18:47 | 34.28133 | 31.41723 | 39010 ft | 525 kts | 130° |
| 2026-04-30 18:47 | 34.23691 | 31.48736 | 39015 ft | 526 kts | 130° |
| 2026-04-30 18:48 | 34.19233 | 31.55762 | 39009 ft | 526 kts | 130° |
| 2026-04-30 18:48 | 34.14775 | 31.62772 | 39008 ft | 526 kts | 130° |
| 2026-04-30 18:49 | 34.10313 | 31.69776 | 39012 ft | 526 kts | 130° |
| 2026-04-30 18:49 | 34.05845 | 31.76775 | 39011 ft | 527 kts | 130° |
| 2026-04-30 18:50 | 34.01374 | 31.83766 | 39024 ft | 526 kts | 130° |
| 2026-04-30 18:50 | 33.96900 | 31.90747 | 39018 ft | 527 kts | 130° |
| 2026-04-30 18:51 | 33.92419 | 31.97725 | 39015 ft | 527 kts | 131° |
| 2026-04-30 18:51 | 33.87932 | 32.04700 | 39015 ft | 527 kts | 131° |
| 2026-04-30 18:52 | 33.83420 | 32.11648 | 39014 ft | 527 kts | 131° |
| 2026-04-30 18:52 | 33.78863 | 32.18558 | 39010 ft | 528 kts | 131° |
| 2026-04-30 18:53 | 33.74320 | 32.25500 | 39009 ft | 528 kts | 131° |
| 2026-04-30 18:53 | 33.69763 | 32.32407 | 39011 ft | 528 kts | 131° |
| 2026-04-30 18:54 | 33.65207 | 32.39324 | 39012 ft | 528 kts | 131° |
| 2026-04-30 18:54 | 33.60649 | 32.46218 | 39010 ft | 528 kts | 131° |
| 2026-04-30 18:55 | 33.56083 | 32.53118 | 39012 ft | 528 kts | 131° |
| 2026-04-30 18:55 | 33.49248 | 32.63416 | 39008 ft | 528 kts | 131° |
| 2026-04-30 18:56 | 33.42376 | 32.73744 | 39013 ft | 529 kts | 132° |
| 2026-04-30 18:57 | 33.35492 | 32.84059 | 39007 ft | 529 kts | 132° |
| 2026-04-30 18:57 | 33.30899 | 32.90926 | 39009 ft | 528 kts | 132° |
| 2026-04-30 18:58 | 33.24006 | 33.01207 | 39013 ft | 529 kts | 132° |
| 2026-04-30 18:59 | 33.17838 | 33.10382 | 39008 ft | 529 kts | 132° |
| 2026-04-30 19:00 | 33.08606 | 33.24072 | 39009 ft | 530 kts | 132° |
| 2026-04-30 19:01 | 32.99336 | 33.37768 | 39011 ft | 531 kts | 132° |
| 2026-04-30 19:02 | 32.92406 | 33.47973 | 39005 ft | 530 kts | 132° |
| 2026-04-30 19:03 | 32.83107 | 33.61622 | 39004 ft | 531 kts | 133° |
| 2026-04-30 19:04 | 32.72953 | 33.74284 | 39018 ft | 531 kts | 138° |
| 2026-04-30 19:04 | 32.67832 | 33.80600 | 38474 ft | 534 kts | 138° |
| 2026-04-30 19:05 | 32.62677 | 33.86927 | 37655 ft | 533 kts | 138° |
| 2026-04-30 19:05 | 32.57524 | 33.93256 | 37022 ft | 529 kts | 138° |
| 2026-04-30 19:06 | 32.52459 | 33.99520 | 37008 ft | 526 kts | 137° |
| 2026-04-30 19:06 | 32.44869 | 34.09000 | 37018 ft | 533 kts | 140° |
| 2026-04-30 19:07 | 32.37259 | 34.18485 | 37039 ft | 542 kts | 120° |
| 2026-04-30 19:08 | 32.31233 | 34.34811 | 37014 ft | 543 kts | 115° |
| 2026-04-30 19:09 | 32.26740 | 34.47189 | 37012 ft | 544 kts | 115° |
| 2026-04-30 19:09 | 32.23764 | 34.55384 | 37007 ft | 543 kts | 115° |
| 2026-04-30 19:10 | 32.17790 | 34.71766 | 37013 ft | 543 kts | 115° |
| 2026-04-30 19:11 | 32.16291 | 34.75862 | 36459 ft | 543 kts | 115° |
| 2026-04-30 19:11 | 32.13298 | 34.84031 | 34922 ft | 542 kts | 115° |
| 2026-04-30 19:11 | 32.11804 | 34.88100 | 34104 ft | 542 kts | 115° |
| 2026-04-30 19:12 | 32.10447 | 34.92238 | 33215 ft | 540 kts | 109° |
| 2026-04-30 19:12 | 32.09251 | 34.96440 | 32328 ft | 539 kts | 109° |
| 2026-04-30 19:12 | 32.08054 | 35.00636 | 31389 ft | 539 kts | 109° |
| 2026-04-30 19:13 | 32.05644 | 35.09015 | 29364 ft | 540 kts | 109° |
| 2026-04-30 19:13 | 32.03247 | 35.17352 | 27417 ft | 534 kts | 109° |
| 2026-04-30 19:13 | 32.02056 | 35.21471 | 26489 ft | 530 kts | 110° |
| 2026-04-30 19:14 | 32.00853 | 35.25575 | 25551 ft | 527 kts | 110° |
| 2026-04-30 19:14 | 31.99699 | 35.29533 | 24637 ft | 510 kts | 110° |
| 2026-04-30 19:14 | 31.98605 | 35.33392 | 23755 ft | 485 kts | 109° |
| 2026-04-30 19:14 | 31.97552 | 35.37092 | 22883 ft | 472 kts | 110° |
| 2026-04-30 19:15 | 31.96493 | 35.40742 | 22043 ft | 470 kts | 111° |
| 2026-04-30 19:15 | 31.94402 | 35.47965 | 20414 ft | 463 kts | 111° |
| 2026-04-30 19:15 | 31.93401 | 35.51545 | 19622 ft | 459 kts | 107° |
| 2026-04-30 19:16 | 31.92991 | 35.53774 | 19134 ft | 457 kts | 103° |
| 2026-04-30 19:16 | 31.92775 | 35.54956 | 18872 ft | 454 kts | 107° |
| 2026-04-30 19:16 | 31.91061 | 35.60575 | 17563 ft | 441 kts | 118° |
| 2026-04-30 19:17 | 31.89723 | 35.63782 | 16812 ft | 431 kts | 120° |
| 2026-04-30 19:17 | 31.87240 | 35.69916 | 15329 ft | 401 kts | 116° |
| 2026-04-30 19:17 | 31.86183 | 35.72887 | 14654 ft | 387 kts | 117° |
| 2026-04-30 19:18 | 31.84348 | 35.77644 | 13535 ft | 381 kts | 118° |
| 2026-04-30 19:18 | 31.82948 | 35.81262 | 12697 ft | 372 kts | 117° |
| 2026-04-30 19:18 | 31.82210 | 35.84169 | 12061 ft | 372 kts | 102° |
| 2026-04-30 19:19 | 31.82151 | 35.87092 | 11444 ft | 341 kts | 86° |
| 2026-04-30 19:19 | 31.82437 | 35.89700 | 11037 ft | 307 kts | 86° |
| 2026-04-30 19:19 | 31.82960 | 35.94378 | 10539 ft | 273 kts | 86° |
| 2026-04-30 19:20 | 31.83209 | 35.96668 | 10266 ft | 285 kts | 86° |
| 2026-04-30 19:20 | 31.83464 | 35.98952 | 9965 ft | 279 kts | 85° |
| 2026-04-30 19:20 | 31.83961 | 36.03420 | 9396 ft | 277 kts | 85° |
| 2026-04-30 19:21 | 31.84207 | 36.05660 | 9122 ft | 277 kts | 85° |
| 2026-04-30 19:21 | 31.84702 | 36.10124 | 8568 ft | 270 kts | 84° |
| 2026-04-30 19:22 | 31.85187 | 36.14536 | 8039 ft | 271 kts | 84° |
| 2026-04-30 19:22 | 31.84828 | 36.20792 | 7387 ft | 244 kts | 125° |
| 2026-04-30 19:23 | 31.80685 | 36.22728 | 6687 ft | 217 kts | 190° |
| 2026-04-30 19:24 | 31.77804 | 36.21897 | 6158 ft | 210 kts | 193° |
| 2026-04-30 19:24 | 31.76546 | 36.21107 | 5817 ft | 205 kts | 227° |
| 2026-04-30 19:24 | 31.75721 | 36.18147 | 5367 ft | 184 kts | 262° |
| 2026-04-30 19:25 | 31.75129 | 36.14010 | 4654 ft | 166 kts | 263° |
| 2026-04-30 19:26 | 31.74757 | 36.11394 | 4238 ft | 161 kts | 263° |
| 2026-04-30 19:26 | 31.74386 | 36.08822 | 3806 ft | 161 kts | 263° |
| 2026-04-30 19:26 | 31.74199 | 36.07519 | 3581 ft | 159 kts | 263° |
| 2026-04-30 19:27 | 31.73841 | 36.05004 | 3137 ft | 157 kts | 261° |
| 2026-04-30 19:27 | 31.73480 | 36.02529 | 2728 ft | 152 kts | 262° |
| 2026-04-30 19:28 | 31.73303 | 36.01296 | 2516 ft | 154 kts | 262° |
| 2026-04-30 19:28 | 31.72995 | 35.99141 | 2416 ft | 101 kts | 260° |
| 2026-04-30 19:29 | 31.72817 | 35.97909 | 2414 ft | 58 kts | 261° |
| 2026-04-30 19:29 | 31.72752 | 35.97462 | 2415 ft | 54 kts | 261° |
| 2026-04-30 19:30 | 31.72556 | 35.96986 | 2415 ft | 13 kts | 171° |
| 2026-04-30 19:30 | 31.72420 | 35.97085 | 2415 ft | 12 kts | 90° |
| 2026-04-30 19:31 | 31.72456 | 35.97348 | 2414 ft | 22 kts | 81° |
| 2026-04-30 19:31 | 31.72485 | 35.97552 | 2414 ft | 28 kts | 80° |
| 2026-04-30 19:31 | 31.72565 | 35.98096 | 2414 ft | 39 kts | 80° |
| 2026-04-30 19:32 | 31.72610 | 35.98411 | 2417 ft | 37 kts | 80° |
| 2026-04-30 19:32 | 31.72639 | 35.98610 | 2416 ft | 18 kts | 80° |
| 2026-04-30 19:32 | 31.72659 | 35.98746 | 2415 ft | 19 kts | 81° |
| 2026-04-30 19:32 | 31.72658 | 35.98875 | 2416 ft | 10 kts | 123° |
| 2026-04-30 19:33 | 31.72608 | 35.98915 | 2417 ft | 6 kts | 184° |
| 2026-04-30 19:33 | 31.72550 | 35.98905 | 2415 ft | 10 kts | 200° |
| 2026-04-30 19:33 | 31.72522 | 35.98878 | 2417 ft | 1 kts | 252° |
| 2026-04-30 19:33 | 31.72516 | 35.98854 | 2416 ft | 1 kts | 243° |
| 2026-04-30 19:34 | 31.72504 | 35.98847 | 2418 ft | 4 kts | 199° |
| 2026-04-30 19:34 | 31.72459 | 35.98850 | 2416 ft | 6 kts | 171° |
| 2026-04-30 19:34 | 31.72446 | 35.98852 | 2416 ft | 0 kts | 171° |